Time;durP1;ratioP1;P1;durP2;ratioP2;P2;SDS_P1;SDS_P2;PMS_P1;PMS_P2;Temp;Humidity;BMP_temperature;BMP_pressure;BME280_temperature;BME280_humidity;BME280_pressure;Samples;Min_cycle;Max_cycle;Signal;HPM_P1;HPM_P2
2023/04/27 00:01:33;;;;;;;1999.90;999.90;;;5.80;82.00;;;;;;5057581;28;20647;-75
2023/04/27 00:03:59;;;;;;;1999.90;999.90;;;5.70;82.90;;;;;;5062957;28;20467;-77
2023/04/27 00:06:26;;;;;;;1999.90;999.90;;;5.70;83.60;;;;;;5058646;28;20119;-77
2023/04/27 00:08:51;;;;;;;1999.90;999.90;;;5.60;83.90;;;;;;5042517;28;20047;-77
2023/04/27 00:11:17;;;;;;;1999.90;999.90;;;5.50;85.60;;;;;;5061500;28;20107;-76
2023/04/27 00:13:43;;;;;;;1999.90;999.90;;;5.20;87.30;;;;;;5055856;28;20078;-77
2023/04/27 00:16:08;;;;;;;1999.90;999.90;;;5.20;87.40;;;;;;5065753;28;20037;-76
2023/04/27 00:18:34;;;;;;;1999.90;999.90;;;5.20;86.70;;;;;;5058399;28;20024;-75
2023/04/27 00:21:00;;;;;;;1999.90;999.90;;;5.30;86.30;;;;;;5044220;28;20060;-76
2023/04/27 00:23:26;;;;;;;1999.90;999.90;;;5.20;87.40;;;;;;5063747;28;20128;-76
2023/04/27 00:25:52;;;;;;;1999.90;999.90;;;5.10;88.70;;;;;;5062477;28;20398;-75
2023/04/27 00:28:18;;;;;;;1999.90;999.90;;;5.00;89.40;;;;;;5041308;28;20025;-75
2023/04/27 00:30:43;;;;;;;1999.90;999.90;;;5.00;89.40;;;;;;5058417;28;20483;-75
2023/04/27 00:33:09;;;;;;;1999.90;999.90;;;5.10;89.30;;;;;;5061380;28;20064;-78
2023/04/27 00:35:35;;;;;;;1999.90;999.90;;;5.00;88.70;;;;;;5061045;28;20126;-77
2023/04/27 00:38:01;;;;;;;1999.90;999.90;;;5.00;88.10;;;;;;5045947;28;20730;-77
2023/04/27 00:40:26;;;;;;;1999.90;999.90;;;5.00;87.60;;;;;;5062607;28;20044;-75
2023/04/27 00:42:52;;;;;;;1999.90;999.90;;;4.80;86.90;;;;;;5060616;28;20028;-75
2023/04/27 00:45:18;;;;;;;1999.90;999.90;;;4.70;87.90;;;;;;5060755;28;20072;-75
2023/04/27 00:47:44;;;;;;;1999.90;999.90;;;4.70;88.10;;;;;;5060848;28;20032;-75
2023/04/27 00:50:10;;;;;;;1999.90;999.90;;;4.80;87.00;;;;;;5045860;28;20395;-77
2023/04/27 00:52:37;;;;;;;1999.90;999.90;;;4.90;87.60;;;;;;5046641;28;20037;-77
2023/04/27 00:55:03;;;;;;;1999.90;999.90;;;5.00;87.10;;;;;;5065871;28;20077;-75
2023/04/27 00:57:30;;;;;;;1999.90;999.90;;;5.20;85.20;;;;;;5058181;28;20032;-75
2023/04/27 00:59:56;;;;;;;1999.90;999.90;;;5.30;85.80;;;;;;5057351;28;20693;-75
2023/04/27 01:02:22;;;;;;;1999.90;999.90;;;5.30;86.30;;;;;;5047451;28;20063;-76
2023/04/27 01:04:49;;;;;;;1999.90;999.90;;;5.20;86.20;;;;;;5056876;28;20101;-75
2023/04/27 01:07:15;;;;;;;1999.90;999.90;;;5.20;85.70;;;;;;5058290;28;20490;-75
2023/04/27 01:09:41;;;;;;;1999.90;999.90;;;5.20;86.10;;;;;;5029520;28;20055;-76
2023/04/27 01:12:07;;;;;;;1999.90;999.90;;;5.10;86.20;;;;;;5059089;28;20483;-76
2023/04/27 01:14:35;;;;;;;1999.90;999.90;;;5.10;86.20;;;;;;5052631;28;20051;-77
2023/04/27 01:17:00;;;;;;;1999.90;999.90;;;5.00;86.50;;;;;;5048665;28;20052;-77
2023/04/27 01:19:27;;;;;;;1999.90;999.90;;;5.00;85.10;;;;;;5067818;28;20491;-77
2023/04/27 01:21:53;;;;;;;1999.90;999.90;;;5.00;84.40;;;;;;5061434;28;20497;-76
2023/04/27 01:24:19;;;;;;;1999.90;999.90;;;4.80;87.10;;;;;;5070785;28;20048;-76
2023/04/27 01:26:45;;;;;;;1999.90;999.90;;;4.50;90.00;;;;;;5054641;28;20035;-76
2023/04/27 01:29:10;;;;;;;1999.90;999.90;;;4.20;90.70;;;;;;5069382;28;20114;-76
2023/04/27 01:31:36;;;;;;;1999.90;999.90;;;4.10;90.80;;;;;;5068780;28;20072;-77
2023/04/27 01:34:02;;;;;;;1999.90;999.90;;;4.20;91.20;;;;;;5055831;28;20040;-75
2023/04/27 01:36:28;;;;;;;1999.90;999.90;;;4.10;91.00;;;;;;5073186;28;20025;-75
2023/04/27 01:38:53;;;;;;;1999.90;999.90;;;4.00;90.80;;;;;;5054263;28;20021;-78
2023/04/27 01:41:19;;;;;;;1999.90;999.90;;;4.00;90.50;;;;;;5071595;28;20395;-76
2023/04/27 01:43:45;;;;;;;1999.90;999.90;;;3.90;90.60;;;;;;5073853;28;20498;-74
2023/04/27 01:46:13;;;;;;;1999.90;999.90;;;3.90;90.50;;;;;;5051076;28;20403;-75
2023/04/27 01:48:39;;;;;;;1999.90;999.90;;;3.80;90.30;;;;;;5049404;28;20113;-75
2023/04/27 01:51:05;;;;;;;1999.90;999.90;;;3.90;90.40;;;;;;5070790;28;20035;-75
2023/04/27 01:53:31;;;;;;;1999.90;999.90;;;3.90;90.70;;;;;;5071404;28;20033;-75
2023/04/27 01:55:58;;;;;;;1999.90;999.90;;;3.90;90.60;;;;;;5073204;28;20041;-75
2023/04/27 01:58:24;;;;;;;1999.90;999.90;;;3.70;90.80;;;;;;5076715;28;20395;-75
2023/04/27 02:00:50;;;;;;;1999.90;999.90;;;3.70;91.00;;;;;;5069059;28;20020;-75
2023/04/27 02:03:16;;;;;;;1999.90;999.90;;;3.60;91.00;;;;;;5056066;28;20047;-76
2023/04/27 02:05:42;;;;;;;1999.90;999.90;;;3.50;91.10;;;;;;5074954;28;20028;-75
2023/04/27 02:08:09;;;;;;;1999.90;999.90;;;3.40;91.30;;;;;;5056306;28;20043;-75
2023/04/27 02:10:35;;;;;;;1999.90;999.90;;;3.30;91.50;;;;;;5070556;28;20036;-76
2023/04/27 02:13:01;;;;;;;1999.90;999.90;;;3.30;91.70;;;;;;5072719;28;20171;-75
2023/04/27 02:15:27;;;;;;;1999.90;999.90;;;3.20;91.70;;;;;;5069853;28;20031;-76
2023/04/27 02:17:53;;;;;;;1999.90;999.90;;;3.30;92.00;;;;;;5072222;28;20024;-76
2023/04/27 02:20:18;;;;;;;1999.90;999.90;;;3.30;92.00;;;;;;5063826;28;20131;-75
2023/04/27 02:22:44;;;;;;;1999.90;999.90;;;3.20;92.00;;;;;;5057249;28;20024;-75
2023/04/27 02:25:13;;;;;;;1999.90;999.90;;;3.30;92.00;;;;;;5056596;28;20046;-76
2023/04/27 02:27:40;;;;;;;1999.90;999.90;;;3.30;91.90;;;;;;5067719;28;20634;-76
2023/04/27 02:30:07;;;;;;;1999.90;999.90;;;3.40;92.10;;;;;;5067176;28;20036;-75
2023/04/27 02:32:33;;;;;;;1999.90;999.90;;;3.30;92.30;;;;;;5074202;28;20046;-75
2023/04/27 02:35:00;;;;;;;1999.90;999.90;;;3.40;92.00;;;;;;5045922;28;20033;-75
2023/04/27 02:37:26;;;;;;;1999.90;999.90;;;3.50;92.20;;;;;;5052682;28;20036;-76
2023/04/27 02:39:51;;;;;;;1999.90;999.90;;;3.50;92.00;;;;;;5069979;28;20028;-75
2023/04/27 02:42:17;;;;;;;1999.90;999.90;;;3.60;91.60;;;;;;5041744;28;20082;-75
2023/04/27 02:44:43;;;;;;;1999.90;999.90;;;3.70;91.20;;;;;;5064118;28;20025;-73
2023/04/27 02:47:09;;;;;;;1999.90;999.90;;;3.70;91.10;;;;;;5071708;28;20090;-76
2023/04/27 02:49:36;;;;;;;1999.90;999.90;;;3.80;90.90;;;;;;5066008;28;20109;-75
2023/04/27 02:52:02;;;;;;;1999.90;999.90;;;3.80;91.10;;;;;;5070118;28;20033;-75
2023/04/27 02:54:28;;;;;;;1999.90;999.90;;;3.80;90.70;;;;;;5047301;28;20041;-77
2023/04/27 02:56:54;;;;;;;1999.90;999.90;;;3.80;90.60;;;;;;5071947;28;20467;-75
2023/04/27 02:59:19;;;;;;;1999.90;999.90;;;3.70;90.60;;;;;;5070588;28;20095;-76
2023/04/27 03:01:45;;;;;;;1999.90;999.90;;;3.80;90.80;;;;;;5074343;28;20063;-75
2023/04/27 03:04:13;;;;;;;1999.90;999.90;;;3.80;91.00;;;;;;5037390;28;20123;-76
2023/04/27 03:06:40;;;;;;;1999.90;999.90;;;4.00;90.80;;;;;;5072530;28;20495;-76
2023/04/27 03:09:05;;;;;;;1999.90;999.90;;;4.10;90.20;;;;;;5031620;28;20029;-76
2023/04/27 03:11:31;;;;;;;1999.90;999.90;;;3.80;91.30;;;;;;5074510;28;20045;-75
2023/04/27 03:13:57;;;;;;;1999.90;999.90;;;3.90;91.60;;;;;;5068575;28;20036;-78
2023/04/27 03:16:24;;;;;;;1999.90;999.90;;;4.00;91.30;;;;;;5068348;28;20565;-75
2023/04/27 03:18:50;;;;;;;1999.90;999.90;;;4.10;91.20;;;;;;5071928;28;20032;-75
2023/04/27 03:21:15;;;;;;;1999.90;999.90;;;4.30;90.50;;;;;;5043390;28;20529;-76
2023/04/27 03:23:41;;;;;;;1999.90;999.90;;;4.30;90.30;;;;;;5058903;28;20048;-75
2023/04/27 03:26:09;;;;;;;1999.90;999.90;;;4.50;90.50;;;;;;5048087;28;20044;-75
2023/04/27 03:28:36;;;;;;;1999.90;999.90;;;4.40;90.20;;;;;;5060952;28;20062;-75
2023/04/27 03:31:05;;;;;;;1999.90;999.90;;;4.60;90.80;;;;;;5062195;28;20033;-75
2023/04/27 03:33:31;;;;;;;1999.90;999.90;;;4.60;90.40;;;;;;5061906;28;20020;-75
2023/04/27 03:35:57;;;;;;;1999.90;999.90;;;4.60;90.40;;;;;;5056324;28;20120;-78
2023/04/27 03:38:24;;;;;;;1999.90;999.90;;;4.60;90.70;;;;;;5068164;28;20104;-75
2023/04/27 03:40:50;;;;;;;1999.90;999.90;;;4.60;90.60;;;;;;5073895;28;20029;-77
2023/04/27 03:43:17;;;;;;;1999.90;999.90;;;4.60;90.50;;;;;;5068490;28;20016;-75
2023/04/27 03:45:43;;;;;;;1999.90;999.90;;;4.70;90.70;;;;;;5050930;28;20050;-75
2023/04/27 03:48:08;;;;;;;1999.90;999.90;;;4.70;90.90;;;;;;5052166;28;20078;-76
2023/04/27 03:50:34;;;;;;;1999.90;999.90;;;4.80;91.10;;;;;;5070037;28;20040;-75
2023/04/27 03:53:00;;;;;;;1999.90;999.90;;;4.80;91.00;;;;;;5040036;28;20051;-75
2023/04/27 03:55:26;;;;;;;1999.90;999.90;;;4.90;91.20;;;;;;5048515;28;20486;-76
2023/04/27 03:57:51;;;;;;;1999.90;999.90;;;4.90;91.00;;;;;;5073830;28;20029;-75
2023/04/27 04:00:17;;;;;;;1999.90;999.90;;;5.10;91.00;;;;;;5063605;28;20029;-76
2023/04/27 04:02:44;;;;;;;1999.90;999.90;;;5.10;91.10;;;;;;5065077;28;20032;-75
2023/04/27 04:05:11;;;;;;;1999.90;999.90;;;5.10;90.80;;;;;;5070899;28;20028;-76
2023/04/27 04:07:37;;;;;;;1999.90;999.90;;;5.20;90.90;;;;;;5054960;28;20043;-77
2023/04/27 04:10:03;;;;;;;1999.90;999.90;;;5.10;91.20;;;;;;5067739;28;20093;-76
2023/04/27 04:12:29;;;;;;;1999.90;999.90;;;5.00;91.30;;;;;;5070433;28;20042;-77
2023/04/27 04:14:55;;;;;;;1999.90;999.90;;;5.00;91.70;;;;;;5045413;28;20099;-75
2023/04/27 04:17:20;;;;;;;1999.90;999.90;;;5.10;91.50;;;;;;5053864;28;20039;-78
2023/04/27 04:19:46;;;;;;;1999.90;999.90;;;5.00;91.30;;;;;;5066051;28;20029;-76
2023/04/27 04:22:12;;;;;;;1999.90;999.90;;;5.10;91.30;;;;;;5056199;28;20513;-76
2023/04/27 04:24:39;;;;;;;1999.90;999.90;;;5.10;91.00;;;;;;5044230;28;20349;-76
2023/04/27 04:27:05;;;;;;;1999.90;999.90;;;5.00;91.20;;;;;;5053943;28;20059;-75
2023/04/27 04:29:30;;;;;;;1999.90;999.90;;;5.00;91.00;;;;;;5064981;28;20753;-77
2023/04/27 04:31:56;;;;;;;1999.90;999.90;;;5.20;90.80;;;;;;5053717;28;20028;-76
2023/04/27 04:34:22;;;;;;;1999.90;999.90;;;5.10;90.50;;;;;;5069947;28;20040;-76
2023/04/27 04:36:50;;;;;;;1999.90;999.90;;;5.20;91.00;;;;;;5054643;28;20037;-75
2023/04/27 04:39:19;;;;;;;1999.90;999.90;;;5.30;90.70;;;;;;5048923;28;20028;-74
2023/04/27 04:41:45;;;;;;;1999.90;999.90;;;5.40;90.20;;;;;;5070826;28;20024;-75
2023/04/27 04:44:11;;;;;;;1999.90;999.90;;;5.50;90.10;;;;;;5064086;28;20054;-74
2023/04/27 04:46:37;;;;;;;1999.90;999.90;;;5.60;89.80;;;;;;5054575;28;20181;-76
2023/04/27 04:49:03;;;;;;;1999.90;999.90;;;5.50;89.00;;;;;;5071027;28;20137;-75
2023/04/27 04:51:29;;;;;;;1999.90;999.90;;;5.50;89.40;;;;;;5048260;28;20416;-75
2023/04/27 04:53:54;;;;;;;1999.90;999.90;;;5.60;88.60;;;;;;5068532;28;20470;-76
2023/04/27 04:56:20;;;;;;;1999.90;999.90;;;5.70;88.30;;;;;;5049781;28;20115;-75
2023/04/27 04:58:46;;;;;;;1999.90;999.90;;;5.60;88.70;;;;;;5063898;28;20028;-75
2023/04/27 05:01:11;;;;;;;1999.90;999.90;;;5.90;87.90;;;;;;5050504;28;20077;-75
2023/04/27 05:03:37;;;;;;;1999.90;999.90;;;5.90;87.20;;;;;;5054855;28;20124;-75
2023/04/27 05:06:03;;;;;;;1999.90;999.90;;;5.90;85.60;;;;;;5049847;28;20044;-75
2023/04/27 05:08:28;;;;;;;1999.90;999.90;;;5.90;87.60;;;;;;5066304;28;20032;-76
2023/04/27 05:10:54;;;;;;;1999.90;999.90;;;6.20;88.60;;;;;;5050115;28;20093;-75
2023/04/27 05:13:20;;;;;;;1999.90;999.90;;;6.10;88.40;;;;;;5070376;28;20031;-74
2023/04/27 05:15:46;;;;;;;1999.90;999.90;;;6.40;88.70;;;;;;5047343;28;20037;-75
2023/04/27 05:18:11;;;;;;;1999.90;999.90;;;6.30;87.60;;;;;;5067257;28;20028;-76
2023/04/27 05:20:37;;;;;;;1999.90;999.90;;;6.30;87.00;;;;;;5071073;28;20032;-75
2023/04/27 05:23:03;;;;;;;1999.90;999.90;;;6.40;86.20;;;;;;5063582;28;20060;-75
2023/04/27 05:25:31;;;;;;;1999.90;999.90;;;6.60;86.10;;;;;;5058519;28;20024;-76
2023/04/27 05:27:56;;;;;;;1999.90;999.90;;;6.90;85.40;;;;;;5068809;28;20036;-74
2023/04/27 05:30:22;;;;;;;1999.90;999.90;;;7.00;85.10;;;;;;5075300;28;20040;-75
2023/04/27 05:32:49;;;;;;;1999.90;999.90;;;7.10;83.40;;;;;;5076282;28;20617;-80
2023/04/27 05:35:15;;;;;;;1999.90;999.90;;;6.70;80.70;;;;;;5047932;28;20084;-73
2023/04/27 05:37:41;;;;;;;1999.90;999.90;;;6.70;80.70;;;;;;5046920;28;20445;-73
2023/04/27 05:40:10;;;;;;;1999.90;999.90;;;6.80;80.50;;;;;;5063835;28;20028;-75
2023/04/27 05:42:35;;;;;;;1999.90;999.90;;;7.10;79.10;;;;;;5064084;28;20037;-73
2023/04/27 05:45:02;;;;;;;1999.90;999.90;;;7.20;78.10;;;;;;5073231;28;20029;-74
2023/04/27 05:47:29;;;;;;;1999.90;999.90;;;7.30;79.60;;;;;;5051130;28;20120;-74
2023/04/27 05:49:55;;;;;;;1999.90;999.90;;;7.30;79.40;;;;;;5071031;28;20025;-74
2023/04/27 05:52:20;;;;;;;1999.90;999.90;;;7.50;78.00;;;;;;5073282;28;20039;-73
2023/04/27 05:54:49;;;;;;;1999.90;999.90;;;7.60;77.90;;;;;;5052237;28;20033;-77
2023/04/27 05:57:16;;;;;;;1999.90;999.90;;;7.60;77.60;;;;;;5045377;28;20038;-77
2023/04/27 05:59:42;;;;;;;1999.90;999.90;;;7.80;77.70;;;;;;5051155;28;20093;-76
2023/04/27 06:02:08;;;;;;;1999.90;999.90;;;8.00;77.80;;;;;;5057540;28;20035;-76
2023/04/27 06:04:35;;;;;;;1999.90;999.90;;;8.20;76.50;;;;;;5069804;28;20025;-77
2023/04/27 06:07:03;;;;;;;1999.90;999.90;;;8.00;78.00;;;;;;5054292;28;20036;-78
2023/04/27 06:09:29;;;;;;;1999.90;999.90;;;8.00;78.60;;;;;;5072808;28;20033;-78
2023/04/27 06:11:57;;;;;;;1999.90;999.90;;;7.90;78.80;;;;;;5053681;28;20074;-79
2023/04/27 06:14:23;;;;;;;1999.90;999.90;;;7.90;80.00;;;;;;5071690;28;20028;-79
2023/04/27 06:16:48;;;;;;;1999.90;999.90;;;8.00;78.10;;;;;;5040101;28;20033;-78
2023/04/27 06:19:14;;;;;;;1999.90;999.90;;;8.20;75.80;;;;;;5057304;28;20086;-78
2023/04/27 06:21:40;;;;;;;1999.90;999.90;;;8.30;76.70;;;;;;5070420;28;20507;-78
2023/04/27 06:24:06;;;;;;;1999.90;999.90;;;8.30;77.00;;;;;;5064832;28;20120;-76
2023/04/27 06:26:32;;;;;;;1999.90;999.90;;;8.40;75.00;;;;;;5069665;28;20035;-76
2023/04/27 06:28:58;;;;;;;1999.90;999.90;;;8.40;76.20;;;;;;5051306;28;20037;-76
2023/04/27 06:31:25;;;;;;;1999.90;999.90;;;8.40;76.00;;;;;;5049430;28;20637;-76
2023/04/27 06:33:50;;;;;;;1999.90;999.90;;;8.50;75.80;;;;;;5051341;28;20716;-77
2023/04/27 06:36:16;;;;;;;1999.90;999.90;;;9.00;75.30;;;;;;5071639;28;20038;-76
2023/04/27 06:38:42;;;;;;;1999.90;999.90;;;9.10;74.50;;;;;;5036139;28;20089;-76
2023/04/27 06:41:07;;;;;;;1999.90;999.90;;;9.20;75.20;;;;;;5054526;28;20887;-76
2023/04/27 06:43:33;;;;;;;1999.90;999.90;;;9.20;73.40;;;;;;5056212;28;20607;-76
2023/04/27 06:45:59;;;;;;;1999.90;999.90;;;8.80;73.80;;;;;;5052157;28;20133;-77
2023/04/27 06:48:24;;;;;;;1999.90;999.90;;;8.90;73.10;;;;;;5075266;28;20032;-77
2023/04/27 06:50:50;;;;;;;1999.90;999.90;;;9.10;73.10;;;;;;5050961;28;20521;-77
2023/04/27 06:53:16;;;;;;;1999.90;999.90;;;9.50;72.80;;;;;;5063376;28;20086;-77
2023/04/27 06:55:42;;;;;;;1999.90;999.90;;;9.30;74.20;;;;;;5066749;28;20037;-76
2023/04/27 06:58:08;;;;;;;1999.90;999.90;;;9.60;72.10;;;;;;5052999;28;20120;-76
2023/04/27 07:00:34;;;;;;;1999.90;999.90;;;9.80;71.60;;;;;;5071928;28;20779;-76
2023/04/27 07:02:59;;;;;;;1999.90;999.90;;;9.70;71.20;;;;;;5050445;28;20029;-76
2023/04/27 07:05:26;;;;;;;1999.90;999.90;;;9.80;71.40;;;;;;5067359;28;20028;-77
2023/04/27 07:07:51;;;;;;;1999.90;999.90;;;9.70;71.40;;;;;;5048319;28;20033;-77
2023/04/27 07:10:17;;;;;;;1999.90;999.90;;;9.60;74.20;;;;;;5057298;28;20543;-77
2023/04/27 07:12:43;;;;;;;1999.90;999.90;;;9.80;72.80;;;;;;5042478;28;20505;-77
2023/04/27 07:15:09;;;;;;;1999.90;999.90;;;9.90;70.90;;;;;;5053638;28;20401;-76
2023/04/27 07:17:35;;;;;;;1999.90;999.90;;;9.90;72.10;;;;;;5067392;28;20024;-76
2023/04/27 07:20:02;;;;;;;1999.90;999.90;;;10.10;71.30;;;;;;5055066;28;20032;-77
2023/04/27 07:22:28;;;;;;;1999.90;999.90;;;10.40;70.70;;;;;;5057159;28;20032;-77
2023/04/27 07:24:54;;;;;;;1999.90;999.90;;;10.50;69.60;;;;;;5070490;28;20057;-76
2023/04/27 07:27:19;;;;;;;1999.90;999.90;;;10.40;69.00;;;;;;5068074;28;20024;-77
2023/04/27 07:29:46;;;;;;;1999.90;999.90;;;10.60;70.20;;;;;;5071327;28;20103;-76
2023/04/27 07:32:13;;;;;;;1999.90;999.90;;;10.80;68.50;;;;;;5052470;28;20083;-76
2023/04/27 07:34:39;;;;;;;1999.90;999.90;;;11.10;69.20;;;;;;5040585;28;20032;-76
2023/04/27 07:37:06;;;;;;;1999.90;999.90;;;11.10;69.70;;;;;;5068107;28;20529;-77
2023/04/27 07:39:32;;;;;;;1999.90;999.90;;;11.40;69.60;;;;;;5049160;28;20059;-76
2023/04/27 07:41:58;;;;;;;1999.90;999.90;;;11.80;69.30;;;;;;5045916;28;20057;-76
2023/04/27 07:44:24;;;;;;;1999.90;999.90;;;11.80;67.40;;;;;;5072419;28;20417;-76
2023/04/27 07:46:53;;;;;;;1999.90;999.90;;;11.90;68.30;;;;;;5048933;28;20043;-77
2023/04/27 07:49:19;;;;;;;1999.90;999.90;;;12.20;67.70;;;;;;5073629;28;20062;-76
2023/04/27 07:51:45;;;;;;;1999.90;999.90;;;12.30;66.40;;;;;;5049810;28;20029;-77
2023/04/27 07:54:11;;;;;;;1999.90;999.90;;;12.70;64.30;;;;;;5075609;28;20024;-76
2023/04/27 07:56:39;;;;;;;1999.90;999.90;;;12.50;65.00;;;;;;5071222;28;20054;-76
2023/04/27 07:59:05;;;;;;;1999.90;999.90;;;12.40;66.60;;;;;;5071210;28;20028;-76
2023/04/27 08:01:30;;;;;;;1999.90;999.90;;;12.30;68.30;;;;;;5054608;28;20024;-76
2023/04/27 08:03:56;;;;;;;1999.90;999.90;;;12.70;65.70;;;;;;5069417;28;20047;-76
2023/04/27 08:06:22;;;;;;;1999.90;999.90;;;12.80;64.40;;;;;;5050938;28;20104;-75
2023/04/27 08:08:47;;;;;;;1999.90;999.90;;;12.50;66.20;;;;;;5052513;28;20033;-76
2023/04/27 08:11:13;;;;;;;1999.90;999.90;;;12.40;65.90;;;;;;5049509;28;20056;-76
2023/04/27 08:13:40;;;;;;;1999.90;999.90;;;12.30;68.70;;;;;;5056999;28;20043;-77
2023/04/27 08:16:06;;;;;;;1999.90;999.90;;;12.10;68.30;;;;;;5041234;28;20036;-76
2023/04/27 08:18:31;;;;;;;1999.90;999.90;;;12.00;66.60;;;;;;5073220;28;20021;-76
2023/04/27 08:20:57;;;;;;;1999.90;999.90;;;12.20;66.60;;;;;;5070327;28;20450;-76
2023/04/27 08:23:27;;;;;;;1999.90;999.90;;;12.40;66.20;;;;;;5036100;28;20052;-76
2023/04/27 08:25:52;;;;;;;1999.90;999.90;;;12.60;65.30;;;;;;5050619;28;20044;-76
2023/04/27 08:28:18;;;;;;;1999.90;999.90;;;12.70;64.80;;;;;;5057551;28;20507;-77
2023/04/27 08:30:44;;;;;;;1999.90;999.90;;;12.90;66.90;;;;;;5068013;28;20052;-77
2023/04/27 08:33:09;;;;;;;1999.90;999.90;;;12.80;64.70;;;;;;5052548;28;20047;-77
2023/04/27 08:35:35;;;;;;;1999.90;999.90;;;12.90;67.00;;;;;;5052004;28;20040;-76
2023/04/27 08:38:01;;;;;;;1999.90;999.90;;;13.10;67.70;;;;;;5065008;28;20040;-77
2023/04/27 08:40:26;;;;;;;1999.90;999.90;;;12.90;68.30;;;;;;5049953;28;20035;-76
2023/04/27 08:42:58;;;;;;;1999.90;999.90;;;12.70;65.00;;;;;;5068201;28;20028;-77
2023/04/27 08:45:25;;;;;;;1999.90;999.90;;;13.00;64.20;;;;;;5069649;28;20459;-77
2023/04/27 08:47:51;;;;;;;1999.90;999.90;;;13.10;63.40;;;;;;5071548;28;20039;-77
2023/04/27 08:50:18;;;;;;;1999.90;999.90;;;13.40;62.70;;;;;;5055070;28;20691;-77
2023/04/27 08:52:45;;;;;;;1999.90;999.90;;;13.50;67.50;;;;;;5071597;28;20038;-77
2023/04/27 08:55:11;;;;;;;1999.90;999.90;;;13.70;65.20;;;;;;5062011;28;20043;-77
2023/04/27 08:57:36;;;;;;;1999.90;999.90;;;13.40;65.80;;;;;;5067267;28;20064;-77
2023/04/27 09:00:11;;;;;;;1999.90;999.90;;;13.90;63.60;;;;;;5051490;28;20419;-77
2023/04/27 09:02:42;;;;;;;1999.90;999.90;;;14.30;62.90;;;;;;5070254;28;20025;-77
2023/04/27 09:05:15;;;;;;;1999.90;999.90;;;14.60;60.50;;;;;;5067761;28;20050;-77
2023/04/27 09:07:41;;;;;;;1999.90;999.90;;;14.80;63.50;;;;;;5069914;28;20111;-77
2023/04/27 09:10:08;;;;;;;1999.90;999.90;;;14.60;60.90;;;;;;5052974;28;20029;-77
2023/04/27 09:12:34;;;;;;;1999.90;999.90;;;15.00;58.40;;;;;;5043897;28;20068;-76
2023/04/27 09:15:02;;;;;;;1999.90;999.90;;;14.50;59.60;;;;;;5043477;28;20482;-76
2023/04/27 09:17:29;;;;;;;1999.90;999.90;;;15.20;53.80;;;;;;5068588;28;20028;-77
2023/04/27 09:20:07;;;;;;;1999.90;999.90;;;15.00;57.10;;;;;;5052937;28;20024;-76
2023/04/27 09:22:42;;;;;;;1999.90;999.90;;;14.90;54.70;;;;;;5067276;28;20028;-76
2023/04/27 09:25:08;;;;;;;1999.90;999.90;;;15.20;57.30;;;;;;5069701;28;20044;-76
2023/04/27 09:27:33;;;;;;;1999.90;999.90;;;16.20;55.90;;;;;;5039591;28;20029;-77
2023/04/27 09:29:59;;;;;;;1999.90;999.90;;;16.60;53.30;;;;;;5050372;28;20040;-76
2023/04/27 09:32:25;;;;;;;1999.90;999.90;;;16.10;51.00;;;;;;5067533;28;20577;-76
2023/04/27 09:34:50;;;;;;;1999.90;999.90;;;16.10;52.10;;;;;;5048825;28;20390;-76
2023/04/27 09:37:16;;;;;;;1999.90;999.90;;;16.20;54.20;;;;;;5068677;28;20437;-77
2023/04/27 09:39:42;;;;;;;1999.90;999.90;;;16.30;52.60;;;;;;5051322;28;20447;-76
2023/04/27 09:42:08;;;;;;;1999.90;999.90;;;17.00;53.60;;;;;;5073594;28;20123;-76
2023/04/27 09:44:34;;;;;;;1999.90;999.90;;;16.50;49.80;;;;;;5049116;28;20025;-76
2023/04/27 09:47:01;;;;;;;1999.90;999.90;;;16.40;51.50;;;;;;5070648;28;20028;-76
2023/04/27 09:49:30;;;;;;;1999.90;999.90;;;16.30;53.00;;;;;;5069485;28;20029;-76
2023/04/27 09:51:57;;;;;;;1999.90;999.90;;;16.20;50.40;;;;;;5066789;28;20074;-76
2023/04/27 09:54:26;;;;;;;1999.90;999.90;;;16.70;52.10;;;;;;5075420;28;20039;-77
2023/04/27 09:57:32;;;;;;;1999.90;999.90;;;17.10;52.30;;;;;;5053079;28;20503;-76
2023/04/27 10:00:00;;;;;;;1999.90;999.90;;;16.70;48.30;;;;;;5018743;28;20455;-77
2023/04/27 10:02:29;;;;;;;1999.90;999.90;;;16.50;47.70;;;;;;5056980;28;20023;-77
2023/04/27 10:05:32;;;;;;;1999.90;999.90;;;16.60;51.20;;;;;;5064843;28;20119;-74
2023/04/27 10:07:58;;;;;;;1999.90;999.90;;;18.50;47.80;;;;;;5074087;28;20467;-74
2023/04/27 10:10:24;;;;;;;1999.90;999.90;;;17.60;49.10;;;;;;5070936;28;20035;-74
2023/04/27 10:13:00;;;;;;;1999.90;999.90;;;17.70;48.20;;;;;;5049633;28;20090;-74
2023/04/27 10:15:27;;;;;;;1999.90;999.90;;;17.10;54.00;;;;;;5065273;28;20032;-74
2023/04/27 10:17:54;;;;;;;1999.90;999.90;;;17.00;50.60;;;;;;5051409;28;20032;-76
2023/04/27 10:20:35;;;;;;;1999.90;999.90;;;17.30;49.50;;;;;;5062636;28;20386;-74
2023/04/27 10:23:01;;;;;;;1999.90;999.90;;;17.70;51.30;;;;;;5058083;28;20035;-75
2023/04/27 10:25:46;;;;;;;1999.90;999.90;;;17.80;48.70;;;;;;5061203;28;20040;-74
2023/04/27 10:28:16;;;;;;;1100.75;596.60;;;16.80;50.30;;;;;;5075443;28;20479;-74
2023/04/27 10:30:45;;;;;;;1999.90;999.90;;;17.10;50.10;;;;;;5060524;28;20051;-74
2023/04/27 10:33:14;;;;;;;1999.90;999.90;;;16.70;53.40;;;;;;5061982;28;20032;-74
2023/04/27 10:35:52;;;;;;;1999.90;999.90;;;16.30;50.10;;;;;;5053699;28;20041;-74
2023/04/27 10:38:22;;;;;;;1999.90;999.90;;;15.70;53.40;;;;;;5065892;28;20020;-74
2023/04/27 10:40:55;;;;;;;1999.90;999.90;;;15.60;52.80;;;;;;5074957;28;20024;-74
2023/04/27 10:43:26;;;;;;;1999.90;999.90;;;16.00;52.20;;;;;;5072864;28;20028;-75
2023/04/27 10:45:52;;;;;;;1999.90;999.90;;;16.50;52.80;;;;;;5069598;28;21272;-75
2023/04/27 10:48:17;;;;;;;1999.90;999.90;;;16.80;51.60;;;;;;5053603;28;20064;-74
2023/04/27 10:50:43;;;;;;;1999.90;999.90;;;16.50;51.50;;;;;;5069577;28;20157;-74
2023/04/27 10:53:10;;;;;;;1999.90;999.90;;;16.20;50.20;;;;;;5056013;28;20029;-74
2023/04/27 10:55:35;;;;;;;1999.90;999.90;;;16.30;50.30;;;;;;5060755;28;20433;-75
2023/04/27 10:58:03;;;;;;;1999.90;999.90;;;16.30;49.60;;;;;;5056363;28;20104;-74
2023/04/27 11:00:45;;;;;;;1999.90;999.90;;;16.00;50.40;;;;;;5071751;28;20355;-74
2023/04/27 11:03:18;;;;;;;1999.90;999.90;;;16.50;52.00;;;;;;5050705;28;20060;-78
2023/04/27 11:05:45;;;;;;;1999.90;999.90;;;16.60;49.50;;;;;;5067421;28;20367;-75
2023/04/27 11:08:15;;;;;;;1999.90;999.90;;;16.20;49.50;;;;;;5066697;28;20025;-74
2023/04/27 11:10:50;;;;;;;1999.90;999.90;;;16.70;50.00;;;;;;5068424;28;20051;-75
2023/04/27 11:13:21;;;;;;;1999.90;999.90;;;16.70;50.70;;;;;;5069502;28;20367;-74
2023/04/27 11:15:54;;;;;;;1999.90;999.90;;;16.60;50.10;;;;;;5071394;28;20032;-73
2023/04/27 11:18:22;;;;;;;1999.90;999.90;;;16.40;50.00;;;;;;5070181;28;20028;-75
2023/04/27 11:20:51;;;;;;;1999.90;999.90;;;16.60;49.70;;;;;;5068968;28;20047;-74
2023/04/27 11:23:27;;;;;;;1999.90;999.90;;;16.30;52.10;;;;;;5068138;28;20040;-75
2023/04/27 11:25:54;;;;;;;1999.90;999.90;;;15.90;52.70;;;;;;5062640;28;20032;-75
2023/04/27 11:28:21;;;;;;;1999.90;999.90;;;15.90;52.10;;;;;;5049678;28;20040;-75
2023/04/27 11:30:54;;;;;;;1999.90;999.90;;;15.80;51.20;;;;;;5065939;28;20047;-75
2023/04/27 11:33:21;;;;;;;1999.90;999.90;;;15.60;52.30;;;;;;5065852;28;20033;-75
2023/04/27 11:35:47;;;;;;;1999.90;999.90;;;16.00;52.60;;;;;;5070410;28;20782;-75
2023/04/27 11:38:17;;;;;;;1999.90;999.90;;;16.80;50.10;;;;;;5061355;28;20033;-75
2023/04/27 11:40:43;;;;;;;;;;;17.10;49.90;;;;;;5051713;28;20032;-76
2023/04/27 11:43:15;;;;;;;1999.90;999.90;;;17.10;49.50;;;;;;5069479;28;19917;-76
2023/04/27 11:45:43;;;;;;;1999.90;999.90;;;17.10;49.60;;;;;;5064173;28;20044;-75
2023/04/27 11:48:15;;;;;;;1999.90;999.90;;;16.50;52.50;;;;;;5067766;28;20067;-73
2023/04/27 11:50:49;;;;;;;1999.90;999.90;;;16.70;50.80;;;;;;5069180;28;20044;-77
2023/04/27 11:53:15;;;;;;;1999.90;999.90;;;16.50;52.30;;;;;;5070352;28;20581;-75
2023/04/27 11:55:43;;;;;;;1999.90;999.90;;;15.70;52.40;;;;;;5076329;28;20112;-76
2023/04/27 11:58:14;;;;;;;1999.90;999.90;;;16.20;52.00;;;;;;5055223;28;20047;-77
2023/04/27 12:00:40;;;;;;;1999.90;999.90;;;18.30;51.20;;;;;;5074986;28;20025;-77
2023/04/27 12:03:06;;;;;;;1999.90;999.90;;;19.80;46.80;;;;;;5068448;28;20509;-77
2023/04/27 12:05:32;;;;;;;1999.90;999.90;;;20.60;42.30;;;;;;5054042;28;20039;-77